createdAt,value
2018-05-16T00:00:53.885Z,10.44
2018-05-16T00:03:21.996Z,10.35
2018-05-16T00:05:50.328Z,10.20
2018-05-16T00:08:18.030Z,10.28
2018-05-16T00:10:45.664Z,10.22
2018-05-16T00:13:13.442Z,10.20
2018-05-16T00:15:41.100Z,10.32
2018-05-16T00:18:09.292Z,10.28
2018-05-16T00:20:36.952Z,10.29
2018-05-16T00:23:04.744Z,10.25
2018-05-16T00:25:32.394Z,10.25
2018-05-16T00:28:00.550Z,10.36
2018-05-16T00:30:28.332Z,10.22
2018-05-16T00:32:56.001Z,10.17
2018-05-16T00:35:23.742Z,10.06
2018-05-16T00:37:51.540Z,10.21
2018-05-16T00:40:19.410Z,10.29
2018-05-16T00:42:47.016Z,10.30
2018-05-16T00:45:14.642Z,10.25
2018-05-16T00:47:42.390Z,10.26
2018-05-16T00:50:10.044Z,10.18
2018-05-16T00:52:37.684Z,10.25
2018-05-16T00:55:05.290Z,10.27
2018-05-16T00:57:33.148Z,10.31
2018-05-16T01:00:00.761Z,10.26
2018-05-16T01:02:28.378Z,10.13
2018-05-16T01:04:56.216Z,10.10
2018-05-16T01:07:24.096Z,10.17
2018-05-16T01:09:51.891Z,10.12
2018-05-16T01:12:20.427Z,10.14
2018-05-16T01:14:48.993Z,10.16
2018-05-16T01:17:16.760Z,10.18
2018-05-16T01:19:45.362Z,10.11
2018-05-16T01:22:13.459Z,10.14
2018-05-16T01:24:41.795Z,10.14
2018-05-16T01:27:09.944Z,10.08
2018-05-16T01:29:37.614Z,10.05
2018-05-16T01:32:05.321Z,10.06
2018-05-16T01:34:34.128Z,10.04
2018-05-16T01:37:02.026Z,10.08
2018-05-16T01:39:29.938Z,10.10
2018-05-16T01:41:57.737Z,10.00
2018-05-16T01:44:26.102Z,10.07
2018-05-16T01:46:53.949Z,10.10
2018-05-16T01:49:21.630Z,10.01
2018-05-16T01:51:49.303Z,10.11
2018-05-16T01:54:16.931Z,10.11
2018-05-16T01:56:44.667Z,9.99
2018-05-16T01:59:12.308Z,9.94
2018-05-16T02:01:39.905Z,10.02
2018-05-16T02:04:07.569Z,10.06
2018-05-16T02:06:35.342Z,10.01
2018-05-16T02:09:03.122Z,9.99
2018-05-16T02:11:31.004Z,10.00
2018-05-16T02:13:58.655Z,9.90
2018-05-16T02:16:26.326Z,10.00
2018-05-16T02:18:55.844Z,10.07
2018-05-16T02:21:23.785Z,10.01
2018-05-16T02:23:51.943Z,10.02
2018-05-16T02:26:19.728Z,10.07
2018-05-16T02:28:47.393Z,10.07
2018-05-16T02:31:15.036Z,9.90
2018-05-16T02:33:43.185Z,9.90
2018-05-16T02:36:11.498Z,9.94
2018-05-16T02:38:39.512Z,9.89
2018-05-16T02:41:07.141Z,9.98
2018-05-16T02:43:35.087Z,10.01
2018-05-16T02:46:02.706Z,9.92
2018-05-16T02:48:30.446Z,9.96
2018-05-16T02:50:58.110Z,9.99
2018-05-16T02:53:25.979Z,9.99
2018-05-16T02:55:53.676Z,10.04
2018-05-16T02:58:21.307Z,10.01
2018-05-16T03:00:48.910Z,10.05
2018-05-16T03:03:16.780Z,10.07
2018-05-16T03:05:44.478Z,10.08
2018-05-16T03:08:13.175Z,10.05
2018-05-16T03:10:40.806Z,10.03
2018-05-16T03:13:08.595Z,10.08
2018-05-16T03:15:36.475Z,10.13
2018-05-16T03:18:04.225Z,10.10
2018-05-16T03:20:32.097Z,10.10
2018-05-16T03:22:59.965Z,10.14
2018-05-16T03:25:27.563Z,10.09
2018-05-16T03:27:55.531Z,10.12
2018-05-16T03:30:23.969Z,10.12
2018-05-16T03:32:51.689Z,10.09
2018-05-16T03:35:19.352Z,10.06
2018-05-16T03:37:47.073Z,10.08
2018-05-16T03:40:14.693Z,9.98
2018-05-16T03:42:42.323Z,9.90
2018-05-16T03:45:10.288Z,9.86
2018-05-16T03:47:37.890Z,9.88
2018-05-16T03:50:06.175Z,9.94
2018-05-16T03:52:33.762Z,10.00
2018-05-16T03:55:01.525Z,9.95
2018-05-16T03:57:50.006Z,9.93
2018-05-16T04:00:29.619Z,9.91
2018-05-16T04:03:09.312Z,9.93
2018-05-16T04:05:36.898Z,9.88
2018-05-16T04:08:04.555Z,9.87
2018-05-16T04:10:32.455Z,9.95
2018-05-16T04:13:00.257Z,9.88
2018-05-16T04:15:27.971Z,9.88
2018-05-16T04:17:55.663Z,10.00
2018-05-16T04:20:23.285Z,10.00
2018-05-16T04:22:50.925Z,9.96
2018-05-16T04:25:18.605Z,10.03
2018-05-16T04:27:46.411Z,10.08
2018-05-16T04:30:14.368Z,10.12
2018-05-16T04:32:42.312Z,10.14
2018-05-16T04:35:10.428Z,10.10
2018-05-16T04:37:39.601Z,10.13
2018-05-16T04:40:07.262Z,10.05
2018-05-16T04:42:34.936Z,9.98
2018-05-16T04:45:02.599Z,10.01
2018-05-16T04:47:30.907Z,10.04
2018-05-16T04:49:58.565Z,10.10
2018-05-16T04:52:26.223Z,10.17
2018-05-16T04:54:54.057Z,10.17
2018-05-16T04:57:22.624Z,10.20
2018-05-16T04:59:50.616Z,10.27
2018-05-16T05:02:18.444Z,10.20
2018-05-16T05:04:46.150Z,10.23
2018-05-16T05:07:13.998Z,10.24
2018-05-16T05:09:41.626Z,10.16
2018-05-16T05:12:09.343Z,10.05
2018-05-16T05:14:36.967Z,10.25
2018-05-16T05:17:04.854Z,10.28
2018-05-16T05:19:32.621Z,10.30
2018-05-16T05:22:00.671Z,10.40
2018-05-16T05:24:28.779Z,10.44
2018-05-16T05:26:56.440Z,10.42
2018-05-16T05:29:24.124Z,10.54
2018-05-16T05:31:51.738Z,10.51
2018-05-16T05:34:19.506Z,10.56
2018-05-16T05:36:47.165Z,10.60
2018-05-16T05:39:14.806Z,10.79
2018-05-16T05:41:42.851Z,10.57
2018-05-16T05:44:11.078Z,10.48
2018-05-16T05:46:38.740Z,10.45
2018-05-16T05:49:06.480Z,10.45
2018-05-16T05:51:34.156Z,10.41
2018-05-16T05:54:02.047Z,10.38
2018-05-16T05:56:29.686Z,10.31
2018-05-16T05:58:57.342Z,10.41
2018-05-16T06:01:25.050Z,10.56
2018-05-16T06:03:53.293Z,10.54
2018-05-16T06:06:21.163Z,10.50
2018-05-16T06:08:48.973Z,10.67
2018-05-16T06:11:16.647Z,10.75
2018-05-16T06:13:44.380Z,10.90
2018-05-16T06:16:12.026Z,10.98
2018-05-16T06:18:39.958Z,11.06
2018-05-16T06:21:07.761Z,11.14
2018-05-16T06:23:35.625Z,11.24
2018-05-16T06:26:03.300Z,11.28
2018-05-16T06:28:31.113Z,11.30
2018-05-16T06:30:58.932Z,11.42
2018-05-16T06:33:27.726Z,11.48
2018-05-16T06:35:56.674Z,11.70
2018-05-16T06:38:24.501Z,11.71
2018-05-16T06:40:52.498Z,12.06
2018-05-16T06:43:20.204Z,12.73
2018-05-16T06:45:47.920Z,13.23
2018-05-16T06:48:15.644Z,13.45
2018-05-16T06:50:43.404Z,14.07
2018-05-16T06:53:11.281Z,13.06
2018-05-16T06:55:39.566Z,12.83
2018-05-16T06:58:07.198Z,12.82
2018-05-16T07:00:35.074Z,12.60
2018-05-16T07:03:03.567Z,12.49
2018-05-16T07:05:31.211Z,12.14
2018-05-16T07:07:59.599Z,12.37
2018-05-16T07:10:27.659Z,12.51
2018-05-16T07:12:55.348Z,12.69
2018-05-16T07:15:23.016Z,12.72
2018-05-16T07:17:50.666Z,12.58
2018-05-16T07:20:18.335Z,12.44
2018-05-16T07:22:46.029Z,12.53
2018-05-16T07:25:13.615Z,12.46
2018-05-16T07:27:41.324Z,12.22
2018-05-16T07:30:09.187Z,12.06
2018-05-16T07:32:36.846Z,12.11
2018-05-16T07:35:04.476Z,12.14
2018-05-16T07:37:32.145Z,12.16
2018-05-16T07:40:00.451Z,12.05
2018-05-16T07:42:28.303Z,11.81
2018-05-16T07:44:55.983Z,11.63
2018-05-16T07:47:23.642Z,11.63
2018-05-16T07:49:51.396Z,11.63
2018-05-16T07:52:19.053Z,11.70
2018-05-16T07:54:46.663Z,11.64
2018-05-16T07:57:14.462Z,11.99
2018-05-16T07:59:42.072Z,11.61
2018-05-16T08:02:09.908Z,11.85
2018-05-16T08:04:37.781Z,12.00
2018-05-16T08:07:07.295Z,12.19
2018-05-16T08:09:35.180Z,12.07
2018-05-16T08:12:02.933Z,12.19
2018-05-16T08:14:31.153Z,12.04
2018-05-16T08:16:59.132Z,12.07
2018-05-16T08:19:26.833Z,12.16
2018-05-16T08:21:55.322Z,12.15
2018-05-16T08:24:23.186Z,12.28
2018-05-16T08:26:51.053Z,12.14
2018-05-16T08:29:18.861Z,12.14
2018-05-16T08:31:46.476Z,11.94
2018-05-16T08:34:14.122Z,11.90
2018-05-16T08:36:41.866Z,11.98
2018-05-16T08:39:09.776Z,11.99
2018-05-16T08:41:37.364Z,11.95
2018-05-16T08:44:05.442Z,11.79
2018-05-16T08:46:33.093Z,12.03
2018-05-16T08:49:00.701Z,12.13
2018-05-16T08:51:28.393Z,12.18
2018-05-16T08:53:56.385Z,12.03
2018-05-16T08:56:24.124Z,11.70
2018-05-16T08:58:51.789Z,11.69
2018-05-16T09:01:19.616Z,11.61
2018-05-16T09:03:48.122Z,11.99
2018-05-16T09:06:15.766Z,11.79
2018-05-16T09:08:43.382Z,11.90
2018-05-16T09:11:11.426Z,11.73
2018-05-16T09:13:39.294Z,11.70
2018-05-16T09:16:07.149Z,11.74
2018-05-16T09:18:36.246Z,11.82
2018-05-16T09:21:04.029Z,11.85
2018-05-16T09:23:33.014Z,11.59
2018-05-16T09:26:00.675Z,11.42
2018-05-16T09:28:29.795Z,11.44
2018-05-16T09:30:58.185Z,11.47
2018-05-16T09:33:26.107Z,11.47
2018-05-16T09:35:53.880Z,11.51
2018-05-16T09:38:22.188Z,11.51
2018-05-16T09:40:50.743Z,11.40
2018-05-16T09:43:19.571Z,11.38
2018-05-16T09:45:47.431Z,11.50
2018-05-16T09:48:16.187Z,11.34
2018-05-16T09:50:44.872Z,11.39
2018-05-16T09:53:12.475Z,11.48
2018-05-16T09:55:40.110Z,11.57
2018-05-16T09:58:07.874Z,11.53
2018-05-16T10:00:35.721Z,11.65
2018-05-16T10:03:03.389Z,11.68
2018-05-16T10:05:31.276Z,11.77
2018-05-16T10:07:59.342Z,11.82
2018-05-16T10:10:27.015Z,11.84
2018-05-16T10:12:54.733Z,11.98
2018-05-16T10:15:22.353Z,12.06
2018-05-16T10:17:50.012Z,12.21
2018-05-16T10:20:17.710Z,12.12
2018-05-16T10:22:45.318Z,12.07
2018-05-16T10:25:12.980Z,12.03
2018-05-16T10:27:40.670Z,12.07
2018-05-16T10:30:08.275Z,12.08
2018-05-16T10:32:35.934Z,12.34
2018-05-16T10:35:03.966Z,12.65
2018-05-16T10:37:31.635Z,12.42
2018-05-16T10:39:59.259Z,12.51
2018-05-16T10:42:26.956Z,12.64
2018-05-16T10:44:54.603Z,12.74
2018-05-16T10:47:22.383Z,12.92
2018-05-16T10:49:50.435Z,12.79
2018-05-16T10:52:18.240Z,12.96
2018-05-16T10:54:45.958Z,12.94
2018-05-16T10:57:13.584Z,12.92
2018-05-16T10:59:41.270Z,13.10
2018-05-16T11:02:08.983Z,13.40
2018-05-16T11:04:37.446Z,13.28
2018-05-16T11:07:05.972Z,13.62
2018-05-16T11:09:33.624Z,13.42
2018-05-16T11:12:01.318Z,13.71
2018-05-16T11:14:28.958Z,13.97
2018-05-16T11:16:56.600Z,14.04
2018-05-16T11:19:24.236Z,14.06
2018-05-16T11:21:51.866Z,14.46
2018-05-16T11:24:19.728Z,14.60
2018-05-16T11:26:47.404Z,14.28
2018-05-16T11:29:15.446Z,14.46
2018-05-16T11:31:43.119Z,14.41
2018-05-16T11:34:10.733Z,14.49
2018-05-16T11:36:39.183Z,14.46
2018-05-16T11:39:07.027Z,14.22
2018-05-16T11:41:34.692Z,14.35
2018-05-16T11:44:02.634Z,14.70
2018-05-16T11:46:31.404Z,14.70
2018-05-16T11:48:59.522Z,15.02
2018-05-16T11:51:27.266Z,14.63
2018-05-16T11:53:54.939Z,14.54
2018-05-16T11:56:22.654Z,14.84
2018-05-16T11:58:50.388Z,15.07
2018-05-16T12:01:18.025Z,15.14
2018-05-16T12:03:46.917Z,14.94
2018-05-16T12:06:14.626Z,14.93
2018-05-16T12:08:42.287Z,15.13
2018-05-16T12:11:09.991Z,15.14
2018-05-16T12:13:37.625Z,15.43
2018-05-16T12:16:05.385Z,15.67
2018-05-16T12:18:33.039Z,16.13
2018-05-16T12:21:04.228Z,16.88
2018-05-16T12:23:34.561Z,16.52
2018-05-16T12:26:02.456Z,16.66
2018-05-16T12:28:30.915Z,16.57
2018-05-16T12:30:58.805Z,16.28
2018-05-16T12:33:26.774Z,16.54
2018-05-16T12:35:54.642Z,16.96
2018-05-16T12:38:24.525Z,17.09
2018-05-16T12:40:52.497Z,17.01
2018-05-16T12:43:20.241Z,17.13
2018-05-16T12:45:48.210Z,16.79
2018-05-16T12:48:15.921Z,16.96
2018-05-16T12:50:45.212Z,17.37
2018-05-16T12:53:13.840Z,17.30
2018-05-16T12:55:41.815Z,17.14
2018-05-16T12:58:09.596Z,16.49
2018-05-16T13:00:37.586Z,16.39
2018-05-16T13:03:05.380Z,16.13
2018-05-16T13:05:33.850Z,16.74
2018-05-16T13:08:01.469Z,17.02
2018-05-16T13:10:29.895Z,16.41
2018-05-16T13:12:57.599Z,15.88
2018-05-16T13:15:25.500Z,15.96
2018-05-16T13:17:54.331Z,16.11
2018-05-16T13:20:22.127Z,15.96
2018-05-16T13:22:50.849Z,16.11
2018-05-16T13:25:18.567Z,16.01
2018-05-16T13:27:46.226Z,15.92
2018-05-16T13:30:13.848Z,15.98
2018-05-16T13:32:41.508Z,15.86
2018-05-16T13:35:09.141Z,15.45
2018-05-16T13:37:36.792Z,15.54
2018-05-16T13:40:04.790Z,15.66
2018-05-16T13:42:32.522Z,15.42
2018-05-16T13:45:00.262Z,15.36
2018-05-16T13:47:27.997Z,15.56
2018-05-16T13:49:55.672Z,15.38
2018-05-16T13:52:23.458Z,15.07
2018-05-16T13:54:52.412Z,14.83
2018-05-16T13:57:20.154Z,14.80
2018-05-16T13:59:48.576Z,14.94
2018-05-16T14:02:16.219Z,15.05
2018-05-16T14:04:43.849Z,14.74
2018-05-16T14:07:11.511Z,15.03
2018-05-16T14:09:39.159Z,14.78
2018-05-16T14:12:07.118Z,14.37
2018-05-16T14:14:34.817Z,14.45
2018-05-16T14:17:02.425Z,14.48
2018-05-16T14:19:30.097Z,14.46
2018-05-16T14:21:57.813Z,14.60
2018-05-16T14:24:25.489Z,14.48
2018-05-16T14:26:53.171Z,14.42
2018-05-16T14:29:20.844Z,14.46
2018-05-16T14:31:48.510Z,14.73
2018-05-16T14:34:16.307Z,14.48
2018-05-16T14:36:44.005Z,14.26
2018-05-16T14:39:12.077Z,14.44
2018-05-16T14:41:39.783Z,14.33
2018-05-16T14:44:07.545Z,14.43
2018-05-16T14:46:35.377Z,14.25
2018-05-16T14:49:03.205Z,14.38
2018-05-16T14:51:31.538Z,14.57
2018-05-16T14:53:59.284Z,14.70
2018-05-16T14:56:26.908Z,14.80
2018-05-16T14:58:54.611Z,14.79
2018-05-16T15:01:22.398Z,14.99
2018-05-16T15:03:50.112Z,15.06
2018-05-16T15:06:17.926Z,15.25
2018-05-16T15:08:45.628Z,15.36
2018-05-16T15:11:13.341Z,15.32
2018-05-16T15:13:41.034Z,15.60
2018-05-16T15:16:08.730Z,16.05
2018-05-16T15:18:36.431Z,15.80
2018-05-16T15:21:04.163Z,15.86
2018-05-16T15:23:31.857Z,15.57
2018-05-16T15:25:59.571Z,15.51
2018-05-16T15:28:27.320Z,15.49
2018-05-16T15:30:55.969Z,15.62
2018-05-16T15:33:23.854Z,15.68
2018-05-16T15:35:51.531Z,15.79
2018-05-16T15:38:19.461Z,15.45
2018-05-16T15:40:48.462Z,15.34
2018-05-16T15:43:16.516Z,15.56
2018-05-16T15:45:45.276Z,15.45
2018-05-16T15:48:14.872Z,15.42
2018-05-16T15:50:42.794Z,15.38
2018-05-16T15:53:10.655Z,15.28
2018-05-16T15:55:38.600Z,15.34
2018-05-16T15:58:07.534Z,15.44
2018-05-16T16:00:35.561Z,15.31
2018-05-16T16:03:04.360Z,15.15
2018-05-16T16:05:32.460Z,15.06
2018-05-16T16:08:01.680Z,15.13
2018-05-16T16:10:30.616Z,15.02
2018-05-16T16:12:58.521Z,15.03
2018-05-16T16:15:26.167Z,14.95
2018-05-16T16:17:53.879Z,15.00
2018-05-16T16:20:21.707Z,14.91
2018-05-16T16:22:49.360Z,14.51
2018-05-16T16:25:17.122Z,14.62
2018-05-16T16:27:45.214Z,14.49
2018-05-16T16:30:12.867Z,14.37
2018-05-16T16:32:40.619Z,14.47
2018-05-16T16:35:08.681Z,14.30
2018-05-16T16:37:36.720Z,14.32
2018-05-16T16:40:04.496Z,14.06
2018-05-16T16:42:32.309Z,14.13
2018-05-16T16:45:00.562Z,14.16
2018-05-16T16:47:28.287Z,14.10
2018-05-16T16:49:56.147Z,14.12
2018-05-16T16:52:24.690Z,14.00
2018-05-16T16:54:52.674Z,13.92
2018-05-16T16:57:20.496Z,13.91
2018-05-16T16:59:48.161Z,13.90
2018-05-16T17:02:15.910Z,13.91
2018-05-16T17:04:43.632Z,14.00
2018-05-16T17:07:11.422Z,13.98
2018-05-16T17:09:40.073Z,13.94
2018-05-16T17:12:08.137Z,14.12
2018-05-16T17:14:36.054Z,13.88
2018-05-16T17:17:05.171Z,13.98
2018-05-16T17:19:33.259Z,13.94
2018-05-16T17:22:01.447Z,13.85
2018-05-16T17:24:31.377Z,13.97
2018-05-16T17:26:59.612Z,13.87
2018-05-16T17:29:28.375Z,13.93
2018-05-16T17:31:57.089Z,13.66
2018-05-16T17:34:25.244Z,13.68
2018-05-16T17:36:53.254Z,13.82
2018-05-16T17:39:20.974Z,13.68
2018-05-16T17:41:49.604Z,13.73
2018-05-16T17:44:19.126Z,13.72
2018-05-16T17:46:48.716Z,13.73
2018-05-16T17:49:16.589Z,13.65
2018-05-16T17:51:44.629Z,13.61
2018-05-16T17:54:12.453Z,13.51
2018-05-16T17:56:40.481Z,13.37
2018-05-16T17:59:08.278Z,13.47
2018-05-16T18:01:36.439Z,13.39
2018-05-16T18:04:04.183Z,13.50
2018-05-16T18:06:31.917Z,13.29
2018-05-16T18:08:59.746Z,13.40
2018-05-16T18:11:27.444Z,13.30
2018-05-16T18:14:07.034Z,13.23
2018-05-16T18:16:54.924Z,13.23
2018-05-16T18:19:22.947Z,13.17
2018-05-16T18:21:51.161Z,13.22
2018-05-16T18:24:19.433Z,13.02
2018-05-16T18:26:47.285Z,12.94
2018-05-16T18:29:14.986Z,13.13
2018-05-16T18:31:42.886Z,12.95
2018-05-16T18:34:10.619Z,12.94
2018-05-16T18:36:38.247Z,12.86
2018-05-16T18:39:07.090Z,12.94
2018-05-16T18:41:35.906Z,12.93
2018-05-16T18:44:04.371Z,12.89
2018-05-16T18:46:32.143Z,13.01
2018-05-16T18:48:59.839Z,13.00
2018-05-16T18:51:28.826Z,12.90
2018-05-16T18:53:56.670Z,12.86
2018-05-16T18:56:24.744Z,12.90
2018-05-16T18:58:53.628Z,12.91
2018-05-16T19:01:23.127Z,12.77
2018-05-16T19:03:51.144Z,12.78
2018-05-16T19:06:19.135Z,12.73
2018-05-16T19:08:46.988Z,12.63
2018-05-16T19:11:14.752Z,12.64
2018-05-16T19:13:42.572Z,12.51
2018-05-16T19:16:10.274Z,12.57
2018-05-16T19:18:38.005Z,12.58
2018-05-16T19:21:05.804Z,12.49
2018-05-16T19:23:33.618Z,12.59
2018-05-16T19:26:01.407Z,12.47
2018-05-16T19:28:29.448Z,12.49
2018-05-16T19:30:57.267Z,12.46
2018-05-16T19:33:24.984Z,12.41
2018-05-16T19:35:53.213Z,12.43
2018-05-16T19:38:21.110Z,12.34
2018-05-16T19:40:52.013Z,12.54
2018-05-16T19:43:21.242Z,12.49
2018-05-16T19:45:49.790Z,12.41
2018-05-16T19:48:17.460Z,12.43
2018-05-16T19:50:45.135Z,12.51
2018-05-16T19:53:12.855Z,12.47
2018-05-16T19:55:41.167Z,12.51
2018-05-16T19:58:09.038Z,12.42
2018-05-16T20:00:36.959Z,12.32
2018-05-16T20:03:05.540Z,12.31
2018-05-16T20:05:33.274Z,12.28
2018-05-16T20:08:01.039Z,12.26
2018-05-16T20:10:28.886Z,12.21
2018-05-16T20:12:56.719Z,12.22
2018-05-16T20:15:24.477Z,12.25
2018-05-16T20:17:52.203Z,12.27
2018-05-16T20:20:20.025Z,12.27
2018-05-16T20:22:47.848Z,12.13
2018-05-16T20:25:15.648Z,12.18
2018-05-16T20:27:43.566Z,12.13
2018-05-16T20:30:11.236Z,12.04
2018-05-16T20:32:38.899Z,12.09
2018-05-16T20:35:07.373Z,12.08
2018-05-16T20:37:35.541Z,12.03
2018-05-16T20:40:03.610Z,12.02
2018-05-16T20:42:31.357Z,11.95
2018-05-16T20:44:59.130Z,11.97
2018-05-16T20:47:26.992Z,11.96
2018-05-16T20:49:54.788Z,11.93
2018-05-16T20:52:22.472Z,11.87
2018-05-16T20:54:50.171Z,11.91
2018-05-16T20:57:18.618Z,11.85
2018-05-16T20:59:46.277Z,11.70
2018-05-16T21:02:13.956Z,11.68
2018-05-16T21:04:41.636Z,11.64
2018-05-16T21:07:09.452Z,11.78
2018-05-16T21:09:38.229Z,11.81
2018-05-16T21:12:06.014Z,11.79
2018-05-16T21:14:33.677Z,11.74
2018-05-16T21:17:01.512Z,11.71
2018-05-16T21:19:29.153Z,11.62
2018-05-16T21:21:56.791Z,11.51
2018-05-16T21:24:24.488Z,11.62
2018-05-16T21:26:52.177Z,11.67
2018-05-16T21:29:19.817Z,11.67
2018-05-16T21:31:47.574Z,11.78
2018-05-16T21:34:15.248Z,11.73
2018-05-16T21:36:42.960Z,11.77
2018-05-16T21:39:10.611Z,11.70
2018-05-16T21:41:38.248Z,11.68
2018-05-16T21:44:05.966Z,11.71
2018-05-16T21:46:33.640Z,11.69
2018-05-16T21:49:01.259Z,11.67
2018-05-16T21:51:28.887Z,11.58
2018-05-16T21:53:56.573Z,11.64
2018-05-16T21:56:24.510Z,11.56
2018-05-16T21:58:52.221Z,11.60
2018-05-16T22:01:19.859Z,11.56
2018-05-16T22:03:47.566Z,11.56
2018-05-16T22:06:15.207Z,11.60
2018-05-16T22:08:42.909Z,11.59
2018-05-16T22:11:10.590Z,11.54
2018-05-16T22:13:38.217Z,11.57
2018-05-16T22:16:05.930Z,11.58
2018-05-16T22:18:33.562Z,11.65
2018-05-16T22:21:01.218Z,11.59
2018-05-16T22:23:28.845Z,11.59
2018-05-16T22:25:56.572Z,11.62
2018-05-16T22:28:24.219Z,11.46
2018-05-16T22:30:57.542Z,11.45
2018-05-16T22:33:30.770Z,11.34
2018-05-16T22:36:03.975Z,11.37
2018-05-16T22:38:37.216Z,11.40
2018-05-16T22:41:10.437Z,11.45
2018-05-16T22:43:43.649Z,11.48
2018-05-16T22:46:11.362Z,11.38
2018-05-16T22:48:39.297Z,11.34
2018-05-16T22:51:06.958Z,11.39
2018-05-16T22:53:34.626Z,11.37
2018-05-16T22:56:02.279Z,11.26
2018-05-16T22:58:30.045Z,11.16
2018-05-16T23:00:57.756Z,11.21
2018-05-16T23:03:25.452Z,11.06
2018-05-16T23:05:53.770Z,11.33
2018-05-16T23:08:21.410Z,11.28
2018-05-16T23:10:49.148Z,11.32
2018-05-16T23:13:16.881Z,11.27
2018-05-16T23:15:44.539Z,11.26
2018-05-16T23:18:12.336Z,11.28
2018-05-16T23:20:39.912Z,11.35
2018-05-16T23:23:07.684Z,11.30
2018-05-16T23:25:35.367Z,11.33
2018-05-16T23:28:03.000Z,11.23
2018-05-16T23:30:30.741Z,11.27
2018-05-16T23:32:58.427Z,11.18
2018-05-16T23:35:26.093Z,11.16
2018-05-16T23:37:53.819Z,11.12
2018-05-16T23:40:21.497Z,11.13
2018-05-16T23:42:49.093Z,11.15
2018-05-16T23:45:16.686Z,11.02
2018-05-16T23:47:44.381Z,10.98
2018-05-16T23:50:12.020Z,11.07
2018-05-16T23:52:39.859Z,11.09
2018-05-16T23:55:07.514Z,11.15
2018-05-16T23:57:35.235Z,11.21
